sensor_id;sensor_type;location;lat;lon;timestamp;P1;durP1;ratioP1;P2;durP2;ratioP2
8652;SDS011;4364;52.426;9.424;2023-11-21T00:02:38;29.63;;;15.47;;
8652;SDS011;4364;52.426;9.424;2023-11-21T00:05:10;26.77;;;15.43;;
8652;SDS011;4364;52.426;9.424;2023-11-21T00:07:38;28.10;;;14.97;;
8652;SDS011;4364;52.426;9.424;2023-11-21T00:10:05;29.03;;;15.23;;
8652;SDS011;4364;52.426;9.424;2023-11-21T00:12:34;25.63;;;14.73;;
8652;SDS011;4364;52.426;9.424;2023-11-21T00:15:01;30.83;;;16.10;;
8652;SDS011;4364;52.426;9.424;2023-11-21T00:17:28;28.63;;;16.73;;
8652;SDS011;4364;52.426;9.424;2023-11-21T00:19:54;29.77;;;16.13;;
8652;SDS011;4364;52.426;9.424;2023-11-21T00:22:21;32.80;;;16.97;;
8652;SDS011;4364;52.426;9.424;2023-11-21T00:24:48;27.90;;;16.73;;
8652;SDS011;4364;52.426;9.424;2023-11-21T00:27:14;29.83;;;16.33;;
8652;SDS011;4364;52.426;9.424;2023-11-21T00:29:41;36.23;;;17.30;;
8652;SDS011;4364;52.426;9.424;2023-11-21T00:32:07;31.13;;;16.87;;
8652;SDS011;4364;52.426;9.424;2023-11-21T00:34:35;33.23;;;17.43;;
8652;SDS011;4364;52.426;9.424;2023-11-21T00:37:01;32.73;;;17.53;;
8652;SDS011;4364;52.426;9.424;2023-11-21T00:39:29;31.70;;;17.60;;
8652;SDS011;4364;52.426;9.424;2023-11-21T00:41:55;35.80;;;18.03;;
8652;SDS011;4364;52.426;9.424;2023-11-21T00:44:22;29.83;;;16.90;;
8652;SDS011;4364;52.426;9.424;2023-11-21T00:46:48;27.57;;;16.87;;
8652;SDS011;4364;52.426;9.424;2023-11-21T00:49:15;33.67;;;17.10;;
8652;SDS011;4364;52.426;9.424;2023-11-21T00:51:42;30.30;;;17.27;;
8652;SDS011;4364;52.426;9.424;2023-11-21T00:54:08;31.43;;;17.20;;
8652;SDS011;4364;52.426;9.424;2023-11-21T00:56:35;29.33;;;17.17;;
8652;SDS011;4364;52.426;9.424;2023-11-21T00:59:01;33.63;;;17.00;;
8652;SDS011;4364;52.426;9.424;2023-11-21T01:01:28;34.33;;;18.13;;
8652;SDS011;4364;52.426;9.424;2023-11-21T01:03:54;37.27;;;18.90;;
8652;SDS011;4364;52.426;9.424;2023-11-21T01:06:21;30.00;;;17.33;;
8652;SDS011;4364;52.426;9.424;2023-11-21T01:08:48;39.20;;;20.03;;
8652;SDS011;4364;52.426;9.424;2023-11-21T01:11:15;34.10;;;19.70;;
8652;SDS011;4364;52.426;9.424;2023-11-21T01:13:42;34.07;;;19.50;;
8652;SDS011;4364;52.426;9.424;2023-11-21T01:16:08;38.43;;;19.87;;
8652;SDS011;4364;52.426;9.424;2023-11-21T01:18:35;40.37;;;19.60;;
8652;SDS011;4364;52.426;9.424;2023-11-21T01:21:02;32.97;;;19.13;;
8652;SDS011;4364;52.426;9.424;2023-11-21T01:23:30;35.50;;;19.57;;
8652;SDS011;4364;52.426;9.424;2023-11-21T01:25:57;35.77;;;18.90;;
8652;SDS011;4364;52.426;9.424;2023-11-21T01:28:24;45.50;;;20.93;;
8652;SDS011;4364;52.426;9.424;2023-11-21T01:30:50;41.57;;;20.57;;
8652;SDS011;4364;52.426;9.424;2023-11-21T01:33:18;38.80;;;21.50;;
8652;SDS011;4364;52.426;9.424;2023-11-21T01:35:45;41.87;;;22.23;;
8652;SDS011;4364;52.426;9.424;2023-11-21T01:38:12;37.43;;;21.60;;
8652;SDS011;4364;52.426;9.424;2023-11-21T01:40:39;37.63;;;21.03;;
8652;SDS011;4364;52.426;9.424;2023-11-21T01:43:06;42.53;;;22.00;;
8652;SDS011;4364;52.426;9.424;2023-11-21T01:45:34;42.67;;;21.23;;
8652;SDS011;4364;52.426;9.424;2023-11-21T01:48:01;36.20;;;21.73;;
8652;SDS011;4364;52.426;9.424;2023-11-21T01:50:29;43.37;;;22.43;;
8652;SDS011;4364;52.426;9.424;2023-11-21T01:52:56;38.47;;;21.50;;
8652;SDS011;4364;52.426;9.424;2023-11-21T01:55:24;41.27;;;21.33;;
8652;SDS011;4364;52.426;9.424;2023-11-21T01:57:55;45.97;;;22.27;;
8652;SDS011;4364;52.426;9.424;2023-11-21T02:00:23;43.73;;;22.43;;
8652;SDS011;4364;52.426;9.424;2023-11-21T02:02:50;42.10;;;23.83;;
8652;SDS011;4364;52.426;9.424;2023-11-21T02:05:18;45.20;;;23.40;;
8652;SDS011;4364;52.426;9.424;2023-11-21T02:07:46;42.67;;;22.20;;
8652;SDS011;4364;52.426;9.424;2023-11-21T02:10:16;43.33;;;23.07;;
8652;SDS011;4364;52.426;9.424;2023-11-21T02:12:43;44.53;;;23.47;;
8652;SDS011;4364;52.426;9.424;2023-11-21T02:15:12;48.53;;;23.20;;
8652;SDS011;4364;52.426;9.424;2023-11-21T02:17:46;41.73;;;22.27;;
8652;SDS011;4364;52.426;9.424;2023-11-21T02:20:19;46.63;;;24.30;;
8652;SDS011;4364;52.426;9.424;2023-11-21T02:22:50;47.33;;;24.23;;
8652;SDS011;4364;52.426;9.424;2023-11-21T02:25:25;44.77;;;23.93;;
8652;SDS011;4364;52.426;9.424;2023-11-21T02:27:54;46.33;;;24.80;;
8652;SDS011;4364;52.426;9.424;2023-11-21T02:30:22;49.57;;;24.33;;
8652;SDS011;4364;52.426;9.424;2023-11-21T02:32:49;48.20;;;24.93;;
8652;SDS011;4364;52.426;9.424;2023-11-21T02:35:15;41.13;;;23.23;;
8652;SDS011;4364;52.426;9.424;2023-11-21T02:37:42;46.93;;;23.90;;
8652;SDS011;4364;52.426;9.424;2023-11-21T02:40:09;46.80;;;24.67;;
8652;SDS011;4364;52.426;9.424;2023-11-21T02:42:39;49.47;;;24.53;;
8652;SDS011;4364;52.426;9.424;2023-11-21T02:45:06;47.07;;;24.27;;
8652;SDS011;4364;52.426;9.424;2023-11-21T02:47:34;44.27;;;23.83;;
8652;SDS011;4364;52.426;9.424;2023-11-21T02:50:00;50.37;;;24.23;;
8652;SDS011;4364;52.426;9.424;2023-11-21T02:52:27;53.67;;;25.27;;
8652;SDS011;4364;52.426;9.424;2023-11-21T02:54:54;52.53;;;24.47;;
8652;SDS011;4364;52.426;9.424;2023-11-21T02:57:20;48.17;;;24.17;;
8652;SDS011;4364;52.426;9.424;2023-11-21T02:59:47;47.63;;;24.30;;
8652;SDS011;4364;52.426;9.424;2023-11-21T03:02:14;51.97;;;25.57;;
8652;SDS011;4364;52.426;9.424;2023-11-21T03:04:41;51.10;;;24.70;;
8652;SDS011;4364;52.426;9.424;2023-11-21T03:07:09;52.63;;;25.97;;
8652;SDS011;4364;52.426;9.424;2023-11-21T03:09:35;53.37;;;27.50;;
8652;SDS011;4364;52.426;9.424;2023-11-21T03:12:02;48.63;;;25.27;;
8652;SDS011;4364;52.426;9.424;2023-11-21T03:14:29;56.77;;;25.23;;
8652;SDS011;4364;52.426;9.424;2023-11-21T03:16:55;54.73;;;26.47;;
8652;SDS011;4364;52.426;9.424;2023-11-21T03:19:22;55.83;;;27.47;;
8652;SDS011;4364;52.426;9.424;2023-11-21T03:21:50;60.70;;;28.50;;
8652;SDS011;4364;52.426;9.424;2023-11-21T03:24:19;61.33;;;28.00;;
8652;SDS011;4364;52.426;9.424;2023-11-21T03:26:46;59.30;;;28.00;;
8652;SDS011;4364;52.426;9.424;2023-11-21T03:29:13;59.83;;;28.33;;
8652;SDS011;4364;52.426;9.424;2023-11-21T03:31:40;61.90;;;28.73;;
8652;SDS011;4364;52.426;9.424;2023-11-21T03:34:09;61.10;;;28.30;;
8652;SDS011;4364;52.426;9.424;2023-11-21T03:36:38;57.83;;;27.53;;
8652;SDS011;4364;52.426;9.424;2023-11-21T03:39:04;57.37;;;26.97;;
8652;SDS011;4364;52.426;9.424;2023-11-21T03:41:31;54.10;;;26.60;;
8652;SDS011;4364;52.426;9.424;2023-11-21T03:43:58;56.90;;;27.87;;
8652;SDS011;4364;52.426;9.424;2023-11-21T03:46:25;58.17;;;26.97;;
8652;SDS011;4364;52.426;9.424;2023-11-21T03:48:52;51.90;;;25.77;;
8652;SDS011;4364;52.426;9.424;2023-11-21T03:51:19;54.20;;;26.17;;
8652;SDS011;4364;52.426;9.424;2023-11-21T03:53:45;57.97;;;27.83;;
8652;SDS011;4364;52.426;9.424;2023-11-21T03:56:11;59.93;;;26.33;;
8652;SDS011;4364;52.426;9.424;2023-11-21T03:58:40;57.93;;;27.53;;
8652;SDS011;4364;52.426;9.424;2023-11-21T04:01:06;56.17;;;27.23;;
8652;SDS011;4364;52.426;9.424;2023-11-21T04:03:33;57.03;;;27.77;;
8652;SDS011;4364;52.426;9.424;2023-11-21T04:06:00;58.17;;;27.27;;
8652;SDS011;4364;52.426;9.424;2023-11-21T04:08:28;63.03;;;27.67;;
8652;SDS011;4364;52.426;9.424;2023-11-21T04:10:55;53.97;;;26.57;;
8652;SDS011;4364;52.426;9.424;2023-11-21T04:13:21;63.13;;;28.40;;
8652;SDS011;4364;52.426;9.424;2023-11-21T04:15:48;56.80;;;28.83;;
8652;SDS011;4364;52.426;9.424;2023-11-21T04:18:14;55.60;;;27.40;;
8652;SDS011;4364;52.426;9.424;2023-11-21T04:20:41;57.27;;;26.30;;
8652;SDS011;4364;52.426;9.424;2023-11-21T04:23:07;57.13;;;25.60;;
8652;SDS011;4364;52.426;9.424;2023-11-21T04:25:36;54.33;;;26.23;;
8652;SDS011;4364;52.426;9.424;2023-11-21T04:28:02;50.67;;;24.57;;
8652;SDS011;4364;52.426;9.424;2023-11-21T04:30:30;51.30;;;25.77;;
8652;SDS011;4364;52.426;9.424;2023-11-21T04:32:57;52.23;;;25.40;;
8652;SDS011;4364;52.426;9.424;2023-11-21T04:35:24;49.37;;;23.37;;
8652;SDS011;4364;52.426;9.424;2023-11-21T04:37:50;45.20;;;22.67;;
8652;SDS011;4364;52.426;9.424;2023-11-21T04:40:17;53.40;;;24.43;;
8652;SDS011;4364;52.426;9.424;2023-11-21T04:42:43;50.30;;;24.17;;
8652;SDS011;4364;52.426;9.424;2023-11-21T04:45:10;51.93;;;24.13;;
8652;SDS011;4364;52.426;9.424;2023-11-21T04:47:39;47.73;;;22.80;;
8652;SDS011;4364;52.426;9.424;2023-11-21T04:50:06;46.67;;;23.17;;
8652;SDS011;4364;52.426;9.424;2023-11-21T04:52:32;45.30;;;22.20;;
8652;SDS011;4364;52.426;9.424;2023-11-21T04:54:59;42.60;;;21.27;;
8652;SDS011;4364;52.426;9.424;2023-11-21T04:57:27;47.37;;;22.33;;
8652;SDS011;4364;52.426;9.424;2023-11-21T04:59:54;40.03;;;19.73;;
8652;SDS011;4364;52.426;9.424;2023-11-21T05:02:21;40.30;;;19.63;;
8652;SDS011;4364;52.426;9.424;2023-11-21T05:05:01;36.50;;;18.07;;
8652;SDS011;4364;52.426;9.424;2023-11-21T05:07:28;40.27;;;19.53;;
8652;SDS011;4364;52.426;9.424;2023-11-21T05:09:57;35.07;;;17.97;;
8652;SDS011;4364;52.426;9.424;2023-11-21T05:12:24;35.80;;;18.43;;
8652;SDS011;4364;52.426;9.424;2023-11-21T05:14:51;41.73;;;19.40;;
8652;SDS011;4364;52.426;9.424;2023-11-21T05:17:17;34.27;;;17.40;;
8652;SDS011;4364;52.426;9.424;2023-11-21T05:19:44;32.67;;;15.97;;
8652;SDS011;4364;52.426;9.424;2023-11-21T05:22:15;29.33;;;16.33;;
8652;SDS011;4364;52.426;9.424;2023-11-21T05:24:41;33.47;;;17.03;;
8652;SDS011;4364;52.426;9.424;2023-11-21T05:27:08;30.93;;;15.80;;
8652;SDS011;4364;52.426;9.424;2023-11-21T05:29:35;28.27;;;15.23;;
8652;SDS011;4364;52.426;9.424;2023-11-21T05:32:03;28.33;;;15.53;;
8652;SDS011;4364;52.426;9.424;2023-11-21T05:34:30;30.30;;;16.03;;
8652;SDS011;4364;52.426;9.424;2023-11-21T05:36:57;25.10;;;13.87;;
8652;SDS011;4364;52.426;9.424;2023-11-21T05:39:24;27.63;;;14.27;;
8652;SDS011;4364;52.426;9.424;2023-11-21T05:41:51;22.80;;;12.97;;
8652;SDS011;4364;52.426;9.424;2023-11-21T05:44:18;24.03;;;12.33;;
8652;SDS011;4364;52.426;9.424;2023-11-21T05:46:44;21.93;;;12.47;;
8652;SDS011;4364;52.426;9.424;2023-11-21T05:49:11;22.30;;;12.73;;
8652;SDS011;4364;52.426;9.424;2023-11-21T05:51:38;23.67;;;12.57;;
8652;SDS011;4364;52.426;9.424;2023-11-21T05:54:05;18.87;;;12.13;;
8652;SDS011;4364;52.426;9.424;2023-11-21T05:56:31;20.23;;;12.07;;
8652;SDS011;4364;52.426;9.424;2023-11-21T05:58:58;20.27;;;11.20;;
8652;SDS011;4364;52.426;9.424;2023-11-21T06:01:25;21.83;;;11.67;;
8652;SDS011;4364;52.426;9.424;2023-11-21T06:03:54;19.73;;;11.57;;
8652;SDS011;4364;52.426;9.424;2023-11-21T06:06:24;20.17;;;11.73;;
8652;SDS011;4364;52.426;9.424;2023-11-21T06:08:51;21.50;;;11.67;;
8652;SDS011;4364;52.426;9.424;2023-11-21T06:11:18;19.60;;;12.33;;
8652;SDS011;4364;52.426;9.424;2023-11-21T06:13:44;17.97;;;10.80;;
8652;SDS011;4364;52.426;9.424;2023-11-21T06:16:11;21.07;;;11.60;;
8652;SDS011;4364;52.426;9.424;2023-11-21T06:18:42;19.43;;;11.70;;
8652;SDS011;4364;52.426;9.424;2023-11-21T06:21:10;19.03;;;11.53;;
8652;SDS011;4364;52.426;9.424;2023-11-21T06:23:37;20.77;;;12.07;;
8652;SDS011;4364;52.426;9.424;2023-11-21T06:26:03;22.10;;;12.53;;
8652;SDS011;4364;52.426;9.424;2023-11-21T06:28:31;21.27;;;12.47;;
8652;SDS011;4364;52.426;9.424;2023-11-21T06:30:58;21.53;;;13.57;;
8652;SDS011;4364;52.426;9.424;2023-11-21T06:33:24;21.40;;;13.03;;
8652;SDS011;4364;52.426;9.424;2023-11-21T06:35:53;25.17;;;13.47;;
8652;SDS011;4364;52.426;9.424;2023-11-21T06:38:21;25.60;;;13.50;;
8652;SDS011;4364;52.426;9.424;2023-11-21T06:40:48;22.13;;;13.03;;
8652;SDS011;4364;52.426;9.424;2023-11-21T06:43:14;23.67;;;13.93;;
8652;SDS011;4364;52.426;9.424;2023-11-21T06:45:41;23.70;;;14.23;;
8652;SDS011;4364;52.426;9.424;2023-11-21T06:48:08;23.37;;;13.90;;
8652;SDS011;4364;52.426;9.424;2023-11-21T06:50:34;22.20;;;13.70;;
8652;SDS011;4364;52.426;9.424;2023-11-21T06:53:02;23.20;;;13.80;;
8652;SDS011;4364;52.426;9.424;2023-11-21T06:55:30;24.10;;;14.27;;
8652;SDS011;4364;52.426;9.424;2023-11-21T06:57:57;24.93;;;14.43;;
8652;SDS011;4364;52.426;9.424;2023-11-21T07:00:24;24.23;;;13.93;;
8652;SDS011;4364;52.426;9.424;2023-11-21T07:02:51;23.77;;;13.70;;
8652;SDS011;4364;52.426;9.424;2023-11-21T07:05:17;24.47;;;12.80;;
8652;SDS011;4364;52.426;9.424;2023-11-21T07:07:48;18.77;;;10.80;;
8652;SDS011;4364;52.426;9.424;2023-11-21T07:10:15;15.33;;;8.97;;
8652;SDS011;4364;52.426;9.424;2023-11-21T07:12:43;10.90;;;7.13;;
8652;SDS011;4364;52.426;9.424;2023-11-21T07:15:09;7.10;;;5.17;;
8652;SDS011;4364;52.426;9.424;2023-11-21T07:17:36;7.17;;;4.50;;
8652;SDS011;4364;52.426;9.424;2023-11-21T07:20:06;5.27;;;3.70;;
8652;SDS011;4364;52.426;9.424;2023-11-21T07:22:33;5.97;;;3.67;;
8652;SDS011;4364;52.426;9.424;2023-11-21T07:25:02;6.13;;;3.57;;
8652;SDS011;4364;52.426;9.424;2023-11-21T07:27:28;5.17;;;3.20;;
8652;SDS011;4364;52.426;9.424;2023-11-21T07:29:55;7.60;;;3.87;;
8652;SDS011;4364;52.426;9.424;2023-11-21T07:32:22;6.13;;;3.93;;
8652;SDS011;4364;52.426;9.424;2023-11-21T07:34:48;7.10;;;4.03;;
8652;SDS011;4364;52.426;9.424;2023-11-21T07:37:15;6.13;;;3.90;;
8652;SDS011;4364;52.426;9.424;2023-11-21T07:39:41;7.47;;;4.30;;
8652;SDS011;4364;52.426;9.424;2023-11-21T07:42:08;4.90;;;3.87;;
8652;SDS011;4364;52.426;9.424;2023-11-21T07:44:36;6.73;;;3.60;;
8652;SDS011;4364;52.426;9.424;2023-11-21T07:47:02;6.07;;;3.93;;
8652;SDS011;4364;52.426;9.424;2023-11-21T07:49:31;5.93;;;4.13;;
8652;SDS011;4364;52.426;9.424;2023-11-21T07:51:57;6.13;;;3.90;;
8652;SDS011;4364;52.426;9.424;2023-11-21T07:54:24;5.97;;;4.17;;
8652;SDS011;4364;52.426;9.424;2023-11-21T07:56:51;6.00;;;4.47;;
8652;SDS011;4364;52.426;9.424;2023-11-21T07:59:17;6.37;;;4.27;;
8652;SDS011;4364;52.426;9.424;2023-11-21T08:01:44;7.37;;;4.47;;
8652;SDS011;4364;52.426;9.424;2023-11-21T08:04:12;6.50;;;4.67;;
8652;SDS011;4364;52.426;9.424;2023-11-21T08:06:39;7.20;;;5.43;;
8652;SDS011;4364;52.426;9.424;2023-11-21T08:09:05;10.03;;;6.27;;
8652;SDS011;4364;52.426;9.424;2023-11-21T08:11:34;11.23;;;7.00;;
8652;SDS011;4364;52.426;9.424;2023-11-21T08:14:00;9.13;;;6.30;;
8652;SDS011;4364;52.426;9.424;2023-11-21T08:16:27;10.10;;;7.07;;
8652;SDS011;4364;52.426;9.424;2023-11-21T08:18:54;9.27;;;7.07;;
8652;SDS011;4364;52.426;9.424;2023-11-21T08:21:21;10.30;;;6.97;;
8652;SDS011;4364;52.426;9.424;2023-11-21T08:23:50;10.07;;;7.67;;
8652;SDS011;4364;52.426;9.424;2023-11-21T08:26:21;14.43;;;8.57;;
8652;SDS011;4364;52.426;9.424;2023-11-21T08:28:48;13.43;;;8.60;;
8652;SDS011;4364;52.426;9.424;2023-11-21T08:31:15;14.33;;;9.37;;
8652;SDS011;4364;52.426;9.424;2023-11-21T08:33:42;14.40;;;9.23;;
8652;SDS011;4364;52.426;9.424;2023-11-21T08:36:09;14.53;;;9.87;;
8652;SDS011;4364;52.426;9.424;2023-11-21T08:38:37;15.97;;;10.30;;
8652;SDS011;4364;52.426;9.424;2023-11-21T08:41:07;14.27;;;9.40;;
8652;SDS011;4364;52.426;9.424;2023-11-21T08:43:34;16.77;;;10.60;;
8652;SDS011;4364;52.426;9.424;2023-11-21T08:46:01;14.53;;;9.97;;
8652;SDS011;4364;52.426;9.424;2023-11-21T08:48:31;14.77;;;10.50;;
8652;SDS011;4364;52.426;9.424;2023-11-21T08:50:58;16.83;;;10.43;;
8652;SDS011;4364;52.426;9.424;2023-11-21T08:53:26;16.03;;;10.03;;
8652;SDS011;4364;52.426;9.424;2023-11-21T08:55:53;16.03;;;10.67;;
8652;SDS011;4364;52.426;9.424;2023-11-21T08:58:20;17.33;;;10.53;;
8652;SDS011;4364;52.426;9.424;2023-11-21T09:00:47;14.77;;;10.03;;
8652;SDS011;4364;52.426;9.424;2023-11-21T09:03:14;16.70;;;10.97;;
8652;SDS011;4364;52.426;9.424;2023-11-21T09:05:41;16.63;;;11.03;;
8652;SDS011;4364;52.426;9.424;2023-11-21T09:08:07;17.93;;;10.73;;
8652;SDS011;4364;52.426;9.424;2023-11-21T09:10:34;15.93;;;10.20;;
8652;SDS011;4364;52.426;9.424;2023-11-21T09:13:03;13.27;;;9.50;;
8652;SDS011;4364;52.426;9.424;2023-11-21T09:15:30;14.60;;;9.13;;
8652;SDS011;4364;52.426;9.424;2023-11-21T09:17:56;15.73;;;9.40;;
8652;SDS011;4364;52.426;9.424;2023-11-21T09:20:23;12.63;;;8.93;;
8652;SDS011;4364;52.426;9.424;2023-11-21T09:22:49;16.27;;;9.80;;
8652;SDS011;4364;52.426;9.424;2023-11-21T09:25:16;15.20;;;9.80;;
8652;SDS011;4364;52.426;9.424;2023-11-21T09:27:43;15.73;;;9.87;;
8652;SDS011;4364;52.426;9.424;2023-11-21T09:30:10;14.50;;;9.67;;
8652;SDS011;4364;52.426;9.424;2023-11-21T09:32:40;14.77;;;10.37;;
8652;SDS011;4364;52.426;9.424;2023-11-21T09:35:07;15.27;;;10.03;;
8652;SDS011;4364;52.426;9.424;2023-11-21T09:37:35;15.73;;;10.43;;
8652;SDS011;4364;52.426;9.424;2023-11-21T09:40:04;17.27;;;10.83;;
8652;SDS011;4364;52.426;9.424;2023-11-21T09:42:39;14.93;;;10.13;;
8652;SDS011;4364;52.426;9.424;2023-11-21T09:45:21;16.43;;;9.80;;
8652;SDS011;4364;52.426;9.424;2023-11-21T09:47:52;15.07;;;9.70;;
8652;SDS011;4364;52.426;9.424;2023-11-21T09:50:22;16.97;;;10.10;;
8652;SDS011;4364;52.426;9.424;2023-11-21T09:55:39;11.47;;;8.53;;
8652;SDS011;4364;52.426;9.424;2023-11-21T09:58:10;13.53;;;9.20;;
8652;SDS011;4364;52.426;9.424;2023-11-21T10:00:40;12.73;;;8.53;;
8652;SDS011;4364;52.426;9.424;2023-11-21T10:03:08;13.37;;;8.40;;
8652;SDS011;4364;52.426;9.424;2023-11-21T10:05:36;14.33;;;9.30;;
8652;SDS011;4364;52.426;9.424;2023-11-21T10:08:10;15.47;;;8.90;;
8652;SDS011;4364;52.426;9.424;2023-11-21T10:10:42;12.63;;;8.63;;
8652;SDS011;4364;52.426;9.424;2023-11-21T10:13:16;13.33;;;9.23;;
8652;SDS011;4364;52.426;9.424;2023-11-21T10:15:49;14.07;;;9.00;;
8652;SDS011;4364;52.426;9.424;2023-11-21T10:18:17;14.70;;;9.43;;
8652;SDS011;4364;52.426;9.424;2023-11-21T10:20:45;11.30;;;8.60;;
8652;SDS011;4364;52.426;9.424;2023-11-21T10:23:20;15.10;;;9.23;;
8652;SDS011;4364;52.426;9.424;2023-11-21T10:25:48;10.67;;;8.23;;
8652;SDS011;4364;52.426;9.424;2023-11-21T10:28:18;12.57;;;8.30;;
8652;SDS011;4364;52.426;9.424;2023-11-21T10:30:45;13.30;;;8.17;;
8652;SDS011;4364;52.426;9.424;2023-11-21T10:33:11;12.27;;;8.30;;
8652;SDS011;4364;52.426;9.424;2023-11-21T10:35:39;9.10;;;7.27;;
8652;SDS011;4364;52.426;9.424;2023-11-21T10:38:13;9.70;;;6.90;;
8652;SDS011;4364;52.426;9.424;2023-11-21T10:40:40;10.20;;;7.50;;
8652;SDS011;4364;52.426;9.424;2023-11-21T10:43:08;12.37;;;7.57;;
8652;SDS011;4364;52.426;9.424;2023-11-21T10:45:37;9.50;;;7.20;;
8652;SDS011;4364;52.426;9.424;2023-11-21T10:48:07;10.30;;;7.30;;
8652;SDS011;4364;52.426;9.424;2023-11-21T10:50:35;12.57;;;7.10;;
8652;SDS011;4364;52.426;9.424;2023-11-21T10:53:04;8.70;;;6.50;;
8652;SDS011;4364;52.426;9.424;2023-11-21T10:55:32;8.70;;;6.40;;
8652;SDS011;4364;52.426;9.424;2023-11-21T10:58:00;10.10;;;6.70;;
8652;SDS011;4364;52.426;9.424;2023-11-21T11:00:29;9.00;;;6.63;;
8652;SDS011;4364;52.426;9.424;2023-11-21T11:02:56;10.70;;;6.07;;
8652;SDS011;4364;52.426;9.424;2023-11-21T11:05:29;8.93;;;6.77;;
8652;SDS011;4364;52.426;9.424;2023-11-21T11:10:35;10.97;;;7.20;;
8652;SDS011;4364;52.426;9.424;2023-11-21T11:13:01;8.97;;;6.43;;
8652;SDS011;4364;52.426;9.424;2023-11-21T11:15:28;9.67;;;6.00;;
8652;SDS011;4364;52.426;9.424;2023-11-21T11:17:55;8.97;;;6.17;;
8652;SDS011;4364;52.426;9.424;2023-11-21T11:20:30;8.80;;;6.33;;
8652;SDS011;4364;52.426;9.424;2023-11-21T11:34:14;10.13;;;6.90;;
8652;SDS011;4364;52.426;9.424;2023-11-21T11:36:54;10.90;;;6.43;;
8652;SDS011;4364;52.426;9.424;2023-11-21T11:39:30;7.97;;;5.97;;
8652;SDS011;4364;52.426;9.424;2023-11-21T11:41:58;7.40;;;5.87;;
8652;SDS011;4364;52.426;9.424;2023-11-21T11:44:46;8.97;;;6.07;;
8652;SDS011;4364;52.426;9.424;2023-11-21T11:47:30;7.17;;;5.80;;
8652;SDS011;4364;52.426;9.424;2023-11-21T11:50:05;7.60;;;6.10;;
8652;SDS011;4364;52.426;9.424;2023-11-21T11:52:38;8.50;;;7.13;;
8652;SDS011;4364;52.426;9.424;2023-11-21T11:55:13;10.53;;;7.43;;
8652;SDS011;4364;52.426;9.424;2023-11-21T11:57:42;9.87;;;7.30;;
8652;SDS011;4364;52.426;9.424;2023-11-21T12:02:47;11.43;;;7.50;;
8652;SDS011;4364;52.426;9.424;2023-11-21T12:05:16;11.77;;;7.90;;
8652;SDS011;4364;52.426;9.424;2023-11-21T12:07:48;9.93;;;7.43;;
8652;SDS011;4364;52.426;9.424;2023-11-21T12:10:17;9.93;;;7.07;;
8652;SDS011;4364;52.426;9.424;2023-11-21T12:12:45;11.33;;;7.40;;
8652;SDS011;4364;52.426;9.424;2023-11-21T12:15:13;10.20;;;7.80;;
8652;SDS011;4364;52.426;9.424;2023-11-21T12:17:41;9.77;;;7.23;;
8652;SDS011;4364;52.426;9.424;2023-11-21T12:20:10;10.23;;;7.37;;
8652;SDS011;4364;52.426;9.424;2023-11-21T12:22:41;9.07;;;6.93;;
8652;SDS011;4364;52.426;9.424;2023-11-21T12:25:11;10.73;;;7.33;;
8652;SDS011;4364;52.426;9.424;2023-11-21T12:27:42;10.13;;;7.47;;
8652;SDS011;4364;52.426;9.424;2023-11-21T12:30:11;11.97;;;7.60;;
8652;SDS011;4364;52.426;9.424;2023-11-21T12:32:40;10.90;;;7.43;;
8652;SDS011;4364;52.426;9.424;2023-11-21T12:35:11;11.23;;;7.67;;
8652;SDS011;4364;52.426;9.424;2023-11-21T12:37:38;9.77;;;7.40;;
8652;SDS011;4364;52.426;9.424;2023-11-21T12:40:06;8.87;;;7.20;;
8652;SDS011;4364;52.426;9.424;2023-11-21T12:42:34;9.00;;;6.70;;
8652;SDS011;4364;52.426;9.424;2023-11-21T12:47:43;9.40;;;6.63;;
8652;SDS011;4364;52.426;9.424;2023-11-21T12:50:15;9.43;;;7.13;;
8652;SDS011;4364;52.426;9.424;2023-11-21T12:52:45;8.67;;;6.57;;
8652;SDS011;4364;52.426;9.424;2023-11-21T12:55:16;8.90;;;6.60;;
8652;SDS011;4364;52.426;9.424;2023-11-21T12:57:44;9.87;;;6.50;;
8652;SDS011;4364;52.426;9.424;2023-11-21T13:00:12;8.87;;;6.70;;
8652;SDS011;4364;52.426;9.424;2023-11-21T13:02:51;9.87;;;6.87;;
8652;SDS011;4364;52.426;9.424;2023-11-21T13:05:30;7.83;;;6.10;;
8652;SDS011;4364;52.426;9.424;2023-11-21T13:07:59;10.73;;;6.77;;
8652;SDS011;4364;52.426;9.424;2023-11-21T13:10:30;9.77;;;7.50;;
8652;SDS011;4364;52.426;9.424;2023-11-21T13:12:59;9.50;;;6.50;;
8652;SDS011;4364;52.426;9.424;2023-11-21T13:15:27;9.07;;;6.37;;
8652;SDS011;4364;52.426;9.424;2023-11-21T13:17:54;10.00;;;7.10;;
8652;SDS011;4364;52.426;9.424;2023-11-21T13:20:26;8.47;;;6.23;;
8652;SDS011;4364;52.426;9.424;2023-11-21T13:22:54;8.27;;;6.10;;
8652;SDS011;4364;52.426;9.424;2023-11-21T13:25:28;8.87;;;6.20;;
8652;SDS011;4364;52.426;9.424;2023-11-21T13:27:57;8.90;;;6.50;;
8652;SDS011;4364;52.426;9.424;2023-11-21T13:30:28;7.37;;;6.17;;
8652;SDS011;4364;52.426;9.424;2023-11-21T13:33:00;8.20;;;6.33;;
8652;SDS011;4364;52.426;9.424;2023-11-21T13:35:28;8.40;;;6.30;;
8652;SDS011;4364;52.426;9.424;2023-11-21T13:38:08;7.57;;;5.87;;
8652;SDS011;4364;52.426;9.424;2023-11-21T13:40:39;7.23;;;5.50;;
8652;SDS011;4364;52.426;9.424;2023-11-21T13:43:11;8.10;;;5.10;;
8652;SDS011;4364;52.426;9.424;2023-11-21T13:45:39;7.83;;;5.67;;
8652;SDS011;4364;52.426;9.424;2023-11-21T13:48:10;8.57;;;5.60;;
8652;SDS011;4364;52.426;9.424;2023-11-21T13:50:40;6.10;;;5.37;;
8652;SDS011;4364;52.426;9.424;2023-11-21T13:53:15;6.63;;;5.27;;
8652;SDS011;4364;52.426;9.424;2023-11-21T13:55:48;6.00;;;5.27;;
8652;SDS011;4364;52.426;9.424;2023-11-21T13:58:17;8.03;;;5.07;;
8652;SDS011;4364;52.426;9.424;2023-11-21T14:00:49;7.53;;;5.77;;
8652;SDS011;4364;52.426;9.424;2023-11-21T14:03:25;6.30;;;4.90;;
8652;SDS011;4364;52.426;9.424;2023-11-21T14:06:08;8.00;;;4.80;;
8652;SDS011;4364;52.426;9.424;2023-11-21T14:08:40;5.90;;;4.97;;
8652;SDS011;4364;52.426;9.424;2023-11-21T14:11:07;6.07;;;5.03;;
8652;SDS011;4364;52.426;9.424;2023-11-21T14:13:37;7.37;;;5.17;;
8652;SDS011;4364;52.426;9.424;2023-11-21T14:16:04;6.67;;;5.20;;
8652;SDS011;4364;52.426;9.424;2023-11-21T14:18:32;5.83;;;4.73;;
8652;SDS011;4364;52.426;9.424;2023-11-21T14:21:05;6.40;;;4.80;;
8652;SDS011;4364;52.426;9.424;2023-11-21T14:23:36;6.93;;;4.77;;
8652;SDS011;4364;52.426;9.424;2023-11-21T14:26:04;6.80;;;5.17;;
8652;SDS011;4364;52.426;9.424;2023-11-21T14:28:32;7.03;;;5.10;;
8652;SDS011;4364;52.426;9.424;2023-11-21T14:31:02;7.07;;;4.80;;
8652;SDS011;4364;52.426;9.424;2023-11-21T14:33:29;6.90;;;5.00;;
8652;SDS011;4364;52.426;9.424;2023-11-21T14:35:56;6.20;;;5.00;;
8652;SDS011;4364;52.426;9.424;2023-11-21T14:38:23;7.33;;;5.10;;
8652;SDS011;4364;52.426;9.424;2023-11-21T14:40:50;6.30;;;5.00;;
8652;SDS011;4364;52.426;9.424;2023-11-21T14:43:16;5.47;;;4.93;;
8652;SDS011;4364;52.426;9.424;2023-11-21T14:45:45;6.83;;;4.83;;
8652;SDS011;4364;52.426;9.424;2023-11-21T14:48:11;6.33;;;4.83;;
8652;SDS011;4364;52.426;9.424;2023-11-21T14:50:42;6.20;;;4.90;;
8652;SDS011;4364;52.426;9.424;2023-11-21T14:53:09;6.80;;;5.37;;
8652;SDS011;4364;52.426;9.424;2023-11-21T14:55:39;6.33;;;4.73;;
8652;SDS011;4364;52.426;9.424;2023-11-21T14:58:18;7.57;;;5.30;;
8652;SDS011;4364;52.426;9.424;2023-11-21T15:00:58;6.07;;;4.97;;
8652;SDS011;4364;52.426;9.424;2023-11-21T15:03:28;9.17;;;5.43;;
8652;SDS011;4364;52.426;9.424;2023-11-21T15:08:27;6.93;;;5.47;;
8652;SDS011;4364;52.426;9.424;2023-11-21T15:10:58;7.37;;;5.13;;
8652;SDS011;4364;52.426;9.424;2023-11-21T15:13:24;6.13;;;5.23;;
8652;SDS011;4364;52.426;9.424;2023-11-21T15:15:53;6.23;;;5.20;;
8652;SDS011;4364;52.426;9.424;2023-11-21T15:18:21;8.40;;;5.33;;
8652;SDS011;4364;52.426;9.424;2023-11-21T15:20:48;6.93;;;5.23;;
8652;SDS011;4364;52.426;9.424;2023-11-21T15:23:15;7.03;;;5.33;;
8652;SDS011;4364;52.426;9.424;2023-11-21T15:25:44;7.20;;;5.20;;
8652;SDS011;4364;52.426;9.424;2023-11-21T15:28:11;6.90;;;5.37;;
8652;SDS011;4364;52.426;9.424;2023-11-21T15:30:38;6.73;;;5.07;;